Time;durP1;ratioP1;P1;durP2;ratioP2;P2;SDS_P1;SDS_P2;PMS_P1;PMS_P2;Temp;Humidity;BMP_temperature;BMP_pressure;BME280_temperature;BME280_humidity;BME280_pressure;Samples;Min_cycle;Max_cycle;Signal;HPM_P1;HPM_P2
2022/03/06 00:00:09;;;;;;;22.40;11.60;;;-1.70;99.90;;;;;;5033379;28;20041;-69
2022/03/06 00:02:36;;;;;;;22.85;11.82;;;-1.60;99.90;;;;;;5047194;28;20044;-70
2022/03/06 00:05:02;;;;;;;20.33;10.88;;;-1.60;99.90;;;;;;5053296;28;20108;-70
2022/03/06 00:07:28;;;;;;;21.17;10.90;;;-1.50;99.90;;;;;;5052179;28;20017;-69
2022/03/06 00:09:53;;;;;;;22.55;11.75;;;-1.50;99.90;;;;;;5052834;28;20124;-69
2022/03/06 00:12:19;;;;;;;21.80;10.13;;;-1.40;99.90;;;;;;5039446;28;20040;-69
2022/03/06 00:14:44;;;;;;;25.00;11.77;;;-1.40;99.90;;;;;;5051244;28;20079;-70
2022/03/06 00:17:10;;;;;;;25.50;12.68;;;-1.40;99.90;;;;;;5053336;28;20029;-69
2022/03/06 00:19:36;;;;;;;22.80;11.80;;;-1.40;99.90;;;;;;5052056;28;20452;-69
2022/03/06 00:22:02;;;;;;;24.35;11.85;;;-1.40;99.90;;;;;;5042035;28;20037;-70
2022/03/06 00:24:28;;;;;;;22.58;11.00;;;-1.40;99.90;;;;;;5046131;28;20028;-69
2022/03/06 00:26:54;;;;;;;19.15;10.55;;;-1.40;99.90;;;;;;5052893;28;20366;-69
2022/03/06 00:29:20;;;;;;;22.63;10.85;;;-1.40;99.90;;;;;;5047017;28;20025;-68
2022/03/06 00:31:45;;;;;;;24.42;11.70;;;-1.50;99.90;;;;;;5040043;28;20032;-70
2022/03/06 00:34:11;;;;;;;24.73;12.52;;;-1.60;99.90;;;;;;5052764;28;20453;-70
2022/03/06 00:36:40;;;;;;;26.10;11.82;;;-1.60;99.90;;;;;;5051894;28;20056;-70
2022/03/06 00:39:06;;;;;;;20.50;10.70;;;-1.70;99.90;;;;;;5052602;28;20052;-69
2022/03/06 00:41:31;;;;;;;23.92;11.02;;;-1.70;99.90;;;;;;5039400;28;20048;-69
2022/03/06 00:43:57;;;;;;;23.70;10.98;;;-1.80;99.90;;;;;;5052295;28;20028;-70
2022/03/06 00:46:23;;;;;;;22.63;10.27;;;-1.90;99.90;;;;;;5051390;28;20090;-69
2022/03/06 00:48:49;;;;;;;23.17;10.85;;;-2.00;99.90;;;;;;5052403;28;20028;-69
2022/03/06 00:51:15;;;;;;;22.13;10.68;;;-2.00;99.90;;;;;;5048701;28;20056;-70
2022/03/06 00:53:43;;;;;;;23.60;11.32;;;-2.10;99.90;;;;;;5032621;28;20038;-69
2022/03/06 00:56:09;;;;;;;22.65;11.07;;;-2.20;99.90;;;;;;5033194;28;20041;-69
2022/03/06 00:58:35;;;;;;;20.60;10.35;;;-2.20;99.90;;;;;;5051181;28;20070;-70
2022/03/06 01:01:01;;;;;;;23.48;11.65;;;-2.30;99.90;;;;;;5052340;28;20087;-70
2022/03/06 01:03:27;;;;;;;23.27;11.38;;;-2.30;99.90;;;;;;5032334;28;20478;-70
2022/03/06 01:05:52;;;;;;;27.63;11.27;;;-2.40;99.90;;;;;;5032211;28;20033;-69
2022/03/06 01:08:18;;;;;;;24.42;11.43;;;-2.40;99.90;;;;;;5031483;28;20028;-69
2022/03/06 01:10:46;;;;;;;24.58;10.63;;;-2.50;99.90;;;;;;5032222;28;20156;-69
2022/03/06 01:13:12;;;;;;;23.75;12.00;;;-2.50;99.90;;;;;;5031913;28;20120;-69
2022/03/06 01:15:38;;;;;;;21.23;10.40;;;-2.50;99.90;;;;;;5050631;28;20025;-70
2022/03/06 01:18:08;;;;;;;19.98;10.45;;;-2.60;99.90;;;;;;5052005;28;20032;-69
2022/03/06 01:20:34;;;;;;;;;;;-2.60;99.90;;;;;;5051903;28;20035;-69
2022/03/06 01:23:00;;;;;;;24.23;11.20;;;-2.60;99.90;;;;;;5041449;28;19966;-69
2022/03/06 01:25:26;;;;;;;24.48;11.25;;;-2.60;99.90;;;;;;5037632;28;20057;-69
2022/03/06 01:27:52;;;;;;;23.10;10.50;;;-2.70;99.90;;;;;;5045414;28;20155;-70
2022/03/06 01:30:21;;;;;;;24.85;11.98;;;-2.60;99.90;;;;;;5031072;28;20057;-69
2022/03/06 01:32:50;;;;;;;26.58;11.80;;;-2.60;99.90;;;;;;5030002;28;20033;-68
2022/03/06 01:35:15;;;;;;;26.33;11.55;;;-2.60;99.90;;;;;;5034964;28;20028;-69
2022/03/06 01:37:41;;;;;;;22.85;11.57;;;-2.70;99.90;;;;;;5051562;28;20402;-70
2022/03/06 01:40:09;;;;;;;26.08;11.90;;;-2.70;99.90;;;;;;5051940;28;20044;-70
2022/03/06 01:42:39;;;;;;;22.05;10.15;;;-2.70;99.90;;;;;;5050675;28;20041;-68
2022/03/06 01:45:06;;;;;;;22.05;10.63;;;-2.80;99.90;;;;;;5051596;28;20064;-68
2022/03/06 01:47:39;;;;;;;23.00;10.85;;;-2.80;99.90;;;;;;5049033;28;20420;-69
2022/03/06 01:50:08;;;;;;;25.52;11.52;;;-2.80;99.90;;;;;;5048404;28;20448;-69
2022/03/06 01:52:33;;;;;;;21.40;11.35;;;-2.90;99.90;;;;;;5030989;28;20091;-69
2022/03/06 01:54:59;;;;;;;27.20;11.57;;;-2.90;99.90;;;;;;5031709;28;20521;-69
2022/03/06 01:57:26;;;;;;;19.75;10.07;;;-2.90;99.90;;;;;;5031475;28;20033;-70
2022/03/06 01:59:52;;;;;;;23.45;11.82;;;-3.00;99.90;;;;;;5031598;28;20355;-69
2022/03/06 02:02:19;;;;;;;24.85;11.73;;;-3.00;99.90;;;;;;5048782;28;20032;-71
2022/03/06 02:04:45;;;;;;;24.63;11.50;;;-3.00;99.90;;;;;;5070770;28;20358;-69
2022/03/06 02:07:10;;;;;;;22.90;10.95;;;-3.00;99.90;;;;;;5071653;28;20377;-69
2022/03/06 02:09:36;;;;;;;22.20;11.00;;;-3.00;99.90;;;;;;5052304;28;20028;-69
2022/03/06 02:14:47;;;;;;;25.92;11.15;;;-3.00;99.90;;;;;;5051635;28;20082;-69
2022/03/06 02:17:13;;;;;;;20.63;10.63;;;-3.00;99.90;;;;;;5051612;28;20480;-69
2022/03/06 02:20:23;;;;;;;23.52;11.00;;;-3.10;99.90;;;;;;5070379;28;20024;-68
2022/03/06 02:22:49;;;;;;;;;;;-3.10;99.90;;;;;;5069635;28;20048;-69
2022/03/06 02:25:35;;;;;;;21.33;10.77;;;-3.20;99.90;;;;;;5059847;28;19955;-69
2022/03/06 02:28:06;;;;;;;24.38;11.15;;;-3.20;99.90;;;;;;5058855;28;20056;-68
2022/03/06 02:30:35;;;;;;;28.83;12.73;;;-3.20;99.90;;;;;;5070445;28;20036;-68
2022/03/06 02:33:03;;;;;;;20.50;10.57;;;-3.20;99.90;;;;;;5071166;28;20048;-69
2022/03/06 02:35:29;;;;;;;22.52;11.35;;;-3.20;99.90;;;;;;5053002;28;20033;-68
2022/03/06 02:37:54;;;;;;;26.52;12.30;;;-3.30;99.90;;;;;;5050864;28;20040;-69
2022/03/06 02:40:22;;;;;;;24.77;11.75;;;-3.30;99.90;;;;;;5050066;28;20111;-70
2022/03/06 02:42:50;;;;;;;25.75;12.10;;;-3.40;99.90;;;;;;5051085;28;20474;-69
2022/03/06 02:45:25;;;;;;;28.63;12.07;;;-3.40;99.90;;;;;;5064742;28;20036;-69
2022/03/06 02:47:53;;;;;;;27.13;12.65;;;-3.30;99.90;;;;;;5071305;28;20025;-69
2022/03/06 02:50:22;;;;;;;27.73;12.27;;;-3.30;99.90;;;;;;5055004;28;20056;-70
2022/03/06 02:52:48;;;;;;;25.73;11.85;;;-3.20;99.90;;;;;;5054509;28;20035;-70
2022/03/06 02:55:15;;;;;;;26.88;13.02;;;-3.20;99.90;;;;;;5054683;28;20036;-70
2022/03/06 02:57:42;;;;;;;24.08;12.00;;;-3.20;99.90;;;;;;5055176;28;20028;-69
2022/03/06 03:00:11;;;;;;;27.70;12.27;;;-3.10;99.90;;;;;;5074166;28;20056;-69
2022/03/06 03:02:38;;;;;;;22.52;11.10;;;-3.00;99.90;;;;;;5073378;28;20036;-69
2022/03/06 03:05:05;;;;;;;24.67;11.05;;;-3.10;99.90;;;;;;5074332;28;20064;-69
2022/03/06 03:07:31;;;;;;;22.40;11.73;;;-3.10;99.90;;;;;;5069119;28;20033;-70
2022/03/06 03:09:57;;;;;;;25.02;11.90;;;-3.10;99.90;;;;;;5053125;28;20402;-69
2022/03/06 03:12:23;;;;;;;25.48;11.48;;;-3.20;99.90;;;;;;5053604;28;20021;-69
2022/03/06 03:14:48;;;;;;;26.10;12.38;;;-3.20;99.90;;;;;;5054423;28;20033;-69
2022/03/06 03:17:14;;;;;;;27.13;13.23;;;-3.20;99.90;;;;;;5055672;28;20363;-69
2022/03/06 03:19:39;;;;;;;27.90;13.75;;;-3.30;99.90;;;;;;5073844;28;20507;-69
2022/03/06 03:22:05;;;;;;;23.63;11.30;;;-3.30;99.90;;;;;;5073859;28;20036;-69
2022/03/06 03:24:31;;;;;;;24.23;12.15;;;-3.30;99.90;;;;;;5073487;28;20390;-70
2022/03/06 03:26:56;;;;;;;26.50;12.27;;;-3.40;99.90;;;;;;5074245;28;20028;-69
2022/03/06 03:29:23;;;;;;;25.55;12.77;;;-3.50;99.90;;;;;;5054201;28;20056;-70
2022/03/06 03:31:48;;;;;;;26.08;13.10;;;-3.50;99.90;;;;;;5073690;28;20111;-69
2022/03/06 03:34:14;;;;;;;25.65;12.20;;;-3.40;99.90;;;;;;5074396;28;20111;-68
2022/03/06 03:36:40;;;;;;;24.73;12.55;;;-3.50;99.90;;;;;;5072950;28;20085;-70
2022/03/06 03:39:07;;;;;;;24.83;12.20;;;-3.50;99.90;;;;;;5064094;28;20111;-69
2022/03/06 03:41:32;;;;;;;28.92;12.68;;;-3.50;99.90;;;;;;5073365;28;20024;-68
2022/03/06 03:43:58;;;;;;;27.55;13.13;;;-3.50;99.90;;;;;;5066796;28;20116;-69
2022/03/06 03:46:24;;;;;;;30.33;13.80;;;-3.50;99.90;;;;;;5052766;28;20029;-68
2022/03/06 03:48:50;;;;;;;27.17;12.52;;;-3.50;99.90;;;;;;5053832;28;20029;-70
2022/03/06 03:51:15;;;;;;;27.42;13.35;;;-3.50;99.90;;;;;;5053621;28;20104;-70
2022/03/06 03:53:41;;;;;;;29.20;13.65;;;-3.50;99.90;;;;;;5052793;28;20621;-69
2022/03/06 03:56:07;;;;;;;28.35;12.93;;;-3.50;99.90;;;;;;5052697;28;20132;-68
2022/03/06 03:58:34;;;;;;;23.95;12.30;;;-3.40;99.90;;;;;;5065609;28;20536;-69
2022/03/06 04:01:00;;;;;;;24.27;12.07;;;-3.40;99.90;;;;;;5073732;28;20359;-69
2022/03/06 04:03:26;;;;;;;27.05;12.32;;;-3.40;99.90;;;;;;5072183;28;20072;-69
2022/03/06 04:05:51;;;;;;;29.63;13.50;;;-3.30;99.90;;;;;;5073490;28;20055;-68
2022/03/06 04:08:18;;;;;;;26.17;12.07;;;-3.40;99.90;;;;;;5061911;28;20446;-68
2022/03/06 04:10:43;;;;;;;24.00;11.68;;;-3.50;99.90;;;;;;5052831;28;20086;-69
2022/03/06 04:13:09;;;;;;;28.92;12.02;;;-3.50;99.90;;;;;;5053244;28;20029;-69
2022/03/06 04:15:35;;;;;;;28.65;12.20;;;-3.60;99.90;;;;;;5052474;28;20021;-69
2022/03/06 04:18:02;;;;;;;27.63;12.23;;;-3.60;99.90;;;;;;5060386;28;20073;-69
2022/03/06 04:20:28;;;;;;;30.80;14.10;;;-3.70;99.90;;;;;;5072239;28;20040;-69
2022/03/06 04:22:55;;;;;;;29.85;13.55;;;-3.70;99.90;;;;;;5072704;28;20040;-69
2022/03/06 04:25:21;;;;;;;29.58;13.63;;;-3.70;99.90;;;;;;5073325;28;20385;-69
2022/03/06 04:27:47;;;;;;;34.05;13.63;;;-3.70;99.90;;;;;;5070094;28;20032;-69
2022/03/06 04:30:13;;;;;;;27.02;12.80;;;-3.60;99.90;;;;;;5072525;28;20028;-69
2022/03/06 04:32:38;;;;;;;31.23;12.95;;;-3.60;99.90;;;;;;5071804;28;20025;-69
2022/03/06 04:35:05;;;;;;;28.75;12.73;;;-3.60;99.90;;;;;;5070252;28;20028;-69
2022/03/06 04:37:31;;;;;;;29.13;13.38;;;-3.60;99.90;;;;;;5066613;28;20025;-69
2022/03/06 04:39:57;;;;;;;26.38;12.70;;;-3.60;99.90;;;;;;5052952;28;20090;-69
2022/03/06 04:42:23;;;;;;;25.05;11.73;;;-3.70;99.90;;;;;;5051624;28;20037;-69
2022/03/06 04:44:49;;;;;;;26.35;13.32;;;-3.70;99.90;;;;;;5052150;28;20108;-69
2022/03/06 04:47:15;;;;;;;28.45;12.73;;;-3.70;99.90;;;;;;5054566;28;20024;-69
2022/03/06 04:49:41;;;;;;;28.27;13.23;;;-3.70;99.90;;;;;;5071994;28;20037;-69
2022/03/06 04:52:06;;;;;;;28.73;13.93;;;-3.70;99.90;;;;;;5070611;28;20028;-69
2022/03/06 04:54:32;;;;;;;29.45;12.52;;;-3.80;99.90;;;;;;5051488;28;20428;-69
2022/03/06 04:57:00;;;;;;;31.20;13.52;;;-3.80;99.90;;;;;;5052450;28;20052;-69
2022/03/06 04:59:26;;;;;;;30.35;13.93;;;-3.80;99.90;;;;;;5051910;28;20120;-70
2022/03/06 05:01:52;;;;;;;26.55;12.48;;;-3.80;99.90;;;;;;5061861;28;20029;-69
2022/03/06 05:04:18;;;;;;;28.73;13.50;;;-3.80;99.90;;;;;;5072298;28;20031;-69
2022/03/06 05:06:43;;;;;;;28.95;13.52;;;-3.80;99.90;;;;;;5071389;28;20106;-69
2022/03/06 05:09:09;;;;;;;29.92;13.93;;;-3.80;99.90;;;;;;5052547;28;20040;-68
2022/03/06 05:11:34;;;;;;;29.35;13.07;;;-3.80;99.90;;;;;;5058716;28;20086;-68
2022/03/06 05:14:00;;;;;;;32.90;14.02;;;-3.70;99.90;;;;;;5072119;28;20466;-68
2022/03/06 05:16:25;;;;;;;28.85;13.23;;;-3.80;99.90;;;;;;5064550;28;20104;-68
2022/03/06 05:18:51;;;;;;;28.65;13.13;;;-3.70;99.90;;;;;;5051607;28;20048;-68
2022/03/06 05:21:17;;;;;;;23.17;12.23;;;-3.80;99.90;;;;;;5052024;28;20096;-68
2022/03/06 05:23:43;;;;;;;31.20;12.90;;;-3.80;99.90;;;;;;5050912;28;20029;-69
2022/03/06 05:26:08;;;;;;;29.85;13.55;;;-3.80;99.90;;;;;;5055152;28;20012;-69
2022/03/06 05:28:36;;;;;;;25.88;12.63;;;-3.90;99.90;;;;;;5071362;28;20105;-69
2022/03/06 05:31:01;;;;;;;32.75;14.73;;;-3.90;99.90;;;;;;5072005;28;20389;-69
2022/03/06 05:33:27;;;;;;;27.85;12.75;;;-3.90;99.90;;;;;;5058674;28;20116;-70
2022/03/06 05:35:53;;;;;;;30.60;14.10;;;-3.90;99.90;;;;;;5063309;28;20048;-69
2022/03/06 05:38:18;;;;;;;29.13;13.93;;;-3.90;99.90;;;;;;5051500;28;20481;-70
2022/03/06 05:40:44;;;;;;;27.63;13.30;;;-3.80;99.90;;;;;;5049897;28;20524;-69
2022/03/06 05:43:10;;;;;;;32.15;13.63;;;-3.70;99.90;;;;;;5051556;28;20037;-69
2022/03/06 05:45:36;;;;;;;25.88;13.20;;;-3.70;99.90;;;;;;5049913;28;20367;-68
2022/03/06 05:48:01;;;;;;;26.20;13.43;;;-3.70;99.90;;;;;;5051883;28;20112;-68
2022/03/06 05:50:27;;;;;;;26.67;13.15;;;-3.60;99.90;;;;;;5051175;28;20107;-69
2022/03/06 05:52:53;;;;;;;31.58;13.57;;;-3.40;99.90;;;;;;5051290;28;20064;-68
2022/03/06 05:55:18;;;;;;;27.13;12.63;;;-3.40;99.90;;;;;;5064277;28;20462;-68
2022/03/06 05:57:45;;;;;;;25.25;12.88;;;-3.40;99.90;;;;;;5053377;28;20025;-68
2022/03/06 06:00:11;;;;;;;26.92;12.95;;;-3.30;99.90;;;;;;5051544;28;20075;-68
2022/03/06 06:02:40;;;;;;;31.08;13.77;;;-3.30;99.90;;;;;;5061233;28;20064;-68
2022/03/06 06:05:07;;;;;;;25.42;12.63;;;-3.30;99.90;;;;;;5050166;28;20025;-67
2022/03/06 06:07:33;;;;;;;26.17;11.93;;;-3.30;99.90;;;;;;5049115;28;20416;-69
2022/03/06 06:09:59;;;;;;;27.17;14.50;;;-3.30;99.90;;;;;;5050014;28;20108;-68
2022/03/06 06:12:25;;;;;;;26.05;13.38;;;-3.30;99.90;;;;;;5050040;28;20142;-68
2022/03/06 06:14:51;;;;;;;26.13;12.85;;;-3.40;99.90;;;;;;5048543;28;20036;-70
2022/03/06 06:17:16;;;;;;;32.25;14.27;;;-3.40;99.90;;;;;;5049620;28;20017;-70
2022/03/06 06:19:42;;;;;;;27.50;13.23;;;-3.30;99.90;;;;;;5050984;28;20478;-68
2022/03/06 06:22:08;;;;;;;30.23;13.65;;;-3.30;99.90;;;;;;5053355;28;20090;-69
2022/03/06 06:24:33;;;;;;;27.67;13.38;;;-3.30;99.90;;;;;;5052288;28;20029;-69
2022/03/06 06:26:59;;;;;;;30.27;13.90;;;-3.40;99.90;;;;;;5053394;28;20041;-69
2022/03/06 06:29:25;;;;;;;28.80;14.23;;;-3.40;99.90;;;;;;5053716;28;20021;-69
2022/03/06 06:31:52;;;;;;;27.50;13.13;;;-3.30;99.90;;;;;;5052559;28;20047;-69
2022/03/06 06:34:18;;;;;;;28.60;14.27;;;-3.40;99.90;;;;;;5053073;28;20533;-68
2022/03/06 06:36:44;;;;;;;29.73;14.45;;;-3.40;99.90;;;;;;5049514;28;20048;-68
2022/03/06 06:39:10;;;;;;;34.13;14.85;;;-3.30;99.90;;;;;;5055538;28;20029;-69
2022/03/06 06:41:40;;;;;;;26.33;12.80;;;-3.20;99.90;;;;;;5052129;28;20512;-69
2022/03/06 06:44:07;;;;;;;28.58;13.48;;;-3.20;99.90;;;;;;5052954;28;20029;-69
2022/03/06 06:46:33;;;;;;;29.77;15.13;;;-3.20;99.90;;;;;;5051898;28;20504;-69
2022/03/06 06:48:59;;;;;;;32.92;14.63;;;-3.10;99.90;;;;;;5050517;28;20028;-68
2022/03/06 06:51:27;;;;;;;27.63;13.55;;;-3.00;99.90;;;;;;5054703;28;20028;-69
2022/03/06 06:53:53;;;;;;;31.05;14.88;;;-2.90;99.90;;;;;;5052269;28;20024;-69
2022/03/06 06:56:19;;;;;;;27.10;13.27;;;-2.90;99.90;;;;;;5052894;28;20454;-69
2022/03/06 06:58:44;;;;;;;29.48;14.32;;;-2.80;99.90;;;;;;5053417;28;20094;-70
2022/03/06 07:01:10;;;;;;;29.35;14.55;;;-2.80;99.90;;;;;;5052641;28;20040;-70
2022/03/06 07:03:36;;;;;;;28.42;13.43;;;-2.70;99.90;;;;;;5051739;28;20033;-72
2022/03/06 07:06:02;;;;;;;34.35;14.20;;;-2.70;99.90;;;;;;5052617;28;20426;-70
2022/03/06 07:08:27;;;;;;;28.70;14.30;;;-2.60;99.90;;;;;;5052134;28;20028;-70
2022/03/06 07:10:53;;;;;;;33.75;15.95;;;-2.50;99.90;;;;;;5054313;28;20116;-71
2022/03/06 07:13:18;;;;;;;32.50;15.73;;;-2.40;99.90;;;;;;5052638;28;20079;-73
2022/03/06 07:15:44;;;;;;;32.38;15.05;;;-2.30;99.90;;;;;;5052947;28;20033;-72
2022/03/06 07:18:10;;;;;;;29.27;13.45;;;-2.20;99.90;;;;;;5052380;28;20028;-71
2022/03/06 07:20:35;;;;;;;32.55;14.75;;;-2.10;99.90;;;;;;5053833;28;20056;-72
2022/03/06 07:23:01;;;;;;;32.28;14.50;;;-2.00;99.90;;;;;;5052199;28;20077;-74
2022/03/06 07:25:27;;;;;;;26.60;14.10;;;-2.00;99.90;;;;;;5054422;28;20036;-74
2022/03/06 07:27:53;;;;;;;27.67;13.60;;;-1.90;99.90;;;;;;5054916;28;20435;-74
2022/03/06 07:30:19;;;;;;;27.90;14.35;;;-1.80;99.90;;;;;;5054456;28;20036;-74
2022/03/06 07:32:51;;;;;;;30.05;14.05;;;-1.70;99.90;;;;;;5051405;28;20032;-76
2022/03/06 07:35:19;;;;;;;25.73;13.63;;;-1.60;99.90;;;;;;5050924;28;20378;-73
2022/03/06 07:37:45;;;;;;;29.90;15.48;;;-1.40;99.90;;;;;;5050764;28;20527;-73
2022/03/06 07:40:13;;;;;;;30.45;15.02;;;-1.30;99.90;;;;;;5055469;28;20029;-74
2022/03/06 07:42:39;;;;;;;27.83;14.15;;;-1.20;99.90;;;;;;5050663;28;20032;-73
2022/03/06 07:45:06;;;;;;;27.25;14.50;;;-1.00;99.90;;;;;;5051883;28;20025;-78
2022/03/06 07:47:32;;;;;;;28.55;14.77;;;-0.90;99.90;;;;;;5051186;28;20106;-71
2022/03/06 07:49:57;;;;;;;27.17;14.23;;;-0.70;99.90;;;;;;5051554;28;20454;-72
2022/03/06 07:52:23;;;;;;;25.85;14.02;;;-0.50;99.90;;;;;;5052440;28;20029;-76
2022/03/06 07:54:48;;;;;;;25.55;13.57;;;-0.40;99.90;;;;;;5052468;28;20021;-73
2022/03/06 07:57:14;;;;;;;27.30;14.95;;;-0.30;99.90;;;;;;5054095;28;20104;-72
2022/03/06 07:59:40;;;;;;;31.67;14.68;;;-0.20;99.90;;;;;;5051301;28;20041;-74
2022/03/06 08:02:05;;;;;;;30.08;14.20;;;-0.10;99.90;;;;;;5055899;28;20028;-73
2022/03/06 08:04:31;;;;;;;28.90;14.43;;;0.00;99.90;;;;;;5051628;28;20021;-73
2022/03/06 08:06:57;;;;;;;24.17;14.00;;;0.10;99.90;;;;;;5053415;28;20032;-74
2022/03/06 08:09:25;;;;;;;23.70;13.30;;;0.30;99.90;;;;;;5052336;28;20360;-74
2022/03/06 08:11:54;;;;;;;30.52;14.77;;;0.50;99.90;;;;;;5051006;28;20033;-73
2022/03/06 08:14:20;;;;;;;26.73;13.87;;;0.50;99.90;;;;;;5051941;28;20432;-73
2022/03/06 08:16:45;;;;;;;26.98;14.68;;;0.60;99.90;;;;;;5051966;28;20033;-73
2022/03/06 08:19:11;;;;;;;25.30;13.90;;;0.80;99.90;;;;;;5053509;28;20067;-73
2022/03/06 08:21:39;;;;;;;26.50;13.32;;;0.80;99.90;;;;;;5052687;28;20060;-73
2022/03/06 08:24:05;;;;;;;27.52;14.43;;;0.90;99.90;;;;;;5052187;28;20466;-73
2022/03/06 08:26:30;;;;;;;26.65;14.75;;;0.90;99.90;;;;;;5052832;28;20057;-73
2022/03/06 08:28:56;;;;;;;25.08;13.35;;;1.10;99.90;;;;;;5052063;28;20056;-72
2022/03/06 08:31:21;;;;;;;24.98;13.80;;;1.10;99.90;;;;;;5052809;28;20028;-72
2022/03/06 08:33:47;;;;;;;25.58;14.27;;;1.20;99.90;;;;;;5051118;28;20094;-78
2022/03/06 08:36:13;;;;;;;25.42;13.88;;;1.20;99.90;;;;;;5052140;28;20029;-71
2022/03/06 08:38:39;;;;;;;23.13;13.13;;;1.30;99.90;;;;;;5050089;28;20052;-71
2022/03/06 08:41:04;;;;;;;22.02;12.98;;;1.50;99.90;;;;;;5051413;28;20516;-72
2022/03/06 08:43:30;;;;;;;24.02;13.05;;;1.70;99.90;;;;;;5054312;28;20029;-70
2022/03/06 08:45:56;;;;;;;23.08;13.65;;;1.80;99.90;;;;;;5051552;28;20033;-71
2022/03/06 08:48:21;;;;;;;25.70;13.75;;;1.90;99.50;;;;;;5055429;28;20405;-70
2022/03/06 08:50:49;;;;;;;25.48;13.02;;;2.00;99.60;;;;;;5055296;28;20024;-70
2022/03/06 08:53:18;;;;;;;24.58;13.82;;;2.10;98.90;;;;;;5050016;28;20039;-70
2022/03/06 08:55:43;;;;;;;25.30;13.77;;;2.20;98.30;;;;;;5048136;28;20469;-70
2022/03/06 08:58:09;;;;;;;23.90;13.15;;;2.30;97.80;;;;;;5050830;28;20098;-71
2022/03/06 09:00:35;;;;;;;25.88;13.23;;;2.40;96.90;;;;;;5050318;28;20039;-71
2022/03/06 09:03:01;;;;;;;23.33;13.38;;;2.50;96.50;;;;;;5049300;28;20037;-71
2022/03/06 09:05:26;;;;;;;24.75;13.75;;;2.50;96.00;;;;;;5050485;28;20017;-70
2022/03/06 09:07:52;;;;;;;22.02;12.57;;;2.70;95.90;;;;;;5051131;28;20716;-71
2022/03/06 09:10:18;;;;;;;23.65;12.45;;;2.80;94.80;;;;;;5050920;28;20037;-71
2022/03/06 09:12:44;;;;;;;26.90;14.55;;;2.80;94.60;;;;;;5052640;28;20466;-74
2022/03/06 09:15:11;;;;;;;23.45;13.90;;;2.80;94.50;;;;;;5052209;28;20059;-75
2022/03/06 09:17:37;;;;;;;24.67;13.80;;;2.90;93.60;;;;;;5049954;28;20040;-71
2022/03/06 09:20:04;;;;;;;24.65;12.65;;;2.80;94.40;;;;;;5048241;28;20048;-84
2022/03/06 09:22:30;;;;;;;25.48;13.30;;;2.90;92.40;;;;;;5052529;28;20037;-72
2022/03/06 09:24:56;;;;;;;22.20;12.38;;;2.90;92.40;;;;;;5054813;28;20031;-78
2022/03/06 09:27:21;;;;;;;24.40;13.40;;;3.00;91.70;;;;;;5051559;28;20104;-79
2022/03/06 09:29:47;;;;;;;26.50;13.43;;;3.10;91.30;;;;;;5050614;28;20086;-83
2022/03/06 09:32:12;;;;;;;23.05;12.38;;;3.10;91.40;;;;;;5053303;28;20060;-79
2022/03/06 09:34:38;;;;;;;19.33;11.68;;;3.20;90.80;;;;;;5050544;28;20021;-79
2022/03/06 09:37:04;;;;;;;20.98;12.23;;;3.20;91.10;;;;;;5050166;28;20036;-80
2022/03/06 09:39:30;;;;;;;23.70;13.00;;;3.50;90.90;;;;;;5049347;28;20367;-79
2022/03/06 09:41:56;;;;;;;21.80;12.23;;;3.50;90.40;;;;;;5052312;28;20025;-86
2022/03/06 09:44:27;;;;;;;26.25;12.90;;;3.50;89.10;;;;;;5050192;28;20439;-76
2022/03/06 09:46:55;;;;;;;23.10;12.23;;;3.50;88.60;;;;;;5045806;28;20098;-76
2022/03/06 09:49:21;;;;;;;23.27;13.82;;;3.60;89.30;;;;;;5050471;28;20494;-77
2022/03/06 09:51:47;;;;;;;19.48;11.75;;;3.70;88.40;;;;;;5051851;28;20021;-76
2022/03/06 09:54:13;;;;;;;25.10;14.27;;;3.80;86.60;;;;;;5050647;28;20040;-76
2022/03/06 09:56:40;;;;;;;22.45;13.05;;;3.90;83.20;;;;;;5053940;28;20048;-77
2022/03/06 09:59:06;;;;;;;22.90;11.90;;;4.00;80.80;;;;;;5054761;28;20174;-75
2022/03/06 10:01:32;;;;;;;22.63;12.77;;;4.10;77.20;;;;;;5055714;28;20033;-75
2022/03/06 10:04:18;;;;;;;22.35;13.02;;;4.30;78.10;;;;;;5062008;28;20013;-78
2022/03/06 10:07:07;;;;;;;21.02;12.30;;;4.40;77.40;;;;;;5052807;28;20040;-75
2022/03/06 10:09:54;;;;;;;23.65;13.32;;;4.50;76.80;;;;;;5052787;28;20115;-73
2022/03/06 10:12:27;;;;;;;24.30;12.88;;;4.70;72.70;;;;;;5053917;28;20041;-82
2022/03/06 10:14:55;;;;;;;24.15;12.63;;;4.60;71.50;;;;;;5053379;28;20097;-87
2022/03/06 10:17:23;;;;;;;22.48;12.80;;;4.70;70.00;;;;;;5054000;28;20021;-75
2022/03/06 10:20:00;;;;;;;23.88;13.15;;;4.60;69.50;;;;;;5053381;28;20021;-77
2022/03/06 10:22:31;;;;;;;22.80;12.73;;;4.50;69.10;;;;;;5053672;28;20040;-74
2022/03/06 10:25:05;;;;;;;20.85;11.35;;;4.50;69.50;;;;;;5053346;28;20024;-74
2022/03/06 10:27:56;;;;;;;25.92;13.30;;;4.60;68.30;;;;;;5054101;28;20032;-74
2022/03/06 10:30:34;;;;;;;24.20;12.50;;;4.50;67.50;;;;;;5053704;28;20032;-75
2022/03/06 10:33:03;;;;;;;22.75;12.00;;;4.40;67.90;;;;;;5053714;28;20071;-76
2022/03/06 10:35:33;;;;;;;20.88;12.23;;;4.30;67.20;;;;;;5053663;28;20021;-82
2022/03/06 10:37:59;;;;;;;22.73;12.38;;;4.30;68.10;;;;;;5053176;28;20025;-78
2022/03/06 10:40:37;;;;;;;21.83;11.75;;;4.40;68.20;;;;;;5054145;28;20029;-81
2022/03/06 10:43:28;;;;;;;22.55;11.93;;;4.40;66.20;;;;;;5051531;28;20112;-74
2022/03/06 10:46:10;;;;;;;19.77;11.52;;;4.60;65.50;;;;;;5053187;28;20029;-74
2022/03/06 10:48:37;;;;;;;21.58;11.60;;;5.00;65.30;;;;;;5053235;28;20029;-73
2022/03/06 10:51:06;;;;;;;18.23;11.38;;;5.30;65.00;;;;;;5053805;28;20020;-74
2022/03/06 10:53:32;;;;;;;19.20;11.60;;;5.70;63.80;;;;;;5053737;28;20549;-78
2022/03/06 10:56:25;;;;;;;19.65;12.05;;;6.00;62.70;;;;;;5053863;28;20095;-77
2022/03/06 10:58:51;;;;;;;21.95;12.25;;;6.00;62.60;;;;;;5051115;28;20048;-79
2022/03/06 11:01:17;;;;;;;23.02;10.73;;;5.90;62.30;;;;;;5054832;28;20029;-69
2022/03/06 11:03:44;;;;;;;20.48;11.20;;;5.80;61.30;;;;;;5053627;28;20033;-76
2022/03/06 11:06:11;;;;;;;18.42;10.35;;;5.50;61.80;;;;;;5073918;28;20033;-76
2022/03/06 11:08:38;;;;;;;17.92;10.82;;;5.40;60.90;;;;;;5059516;28;20079;-70
2022/03/06 11:11:06;;;;;;;19.17;11.48;;;5.20;61.20;;;;;;5054970;28;20028;-73
2022/03/06 11:13:32;;;;;;;20.08;11.43;;;5.00;61.70;;;;;;5054185;28;20120;-72
2022/03/06 11:15:59;;;;;;;20.90;11.40;;;4.70;63.00;;;;;;5053175;28;20033;-69
2022/03/06 11:18:26;;;;;;;23.17;12.60;;;4.60;63.50;;;;;;5054160;28;20032;-70
2022/03/06 11:20:57;;;;;;;21.05;12.43;;;4.50;63.60;;;;;;5055263;28;20040;-72
2022/03/06 11:23:37;;;;;;;21.73;12.50;;;4.50;63.10;;;;;;5073898;28;20051;-70
2022/03/06 11:26:17;;;;;;;17.50;10.65;;;4.60;62.90;;;;;;5074215;28;20036;-71
2022/03/06 11:28:43;;;;;;;19.00;10.85;;;4.60;62.00;;;;;;5073074;28;20020;-70
2022/03/06 11:31:12;;;;;;;17.92;11.10;;;4.60;62.20;;;;;;5069439;28;20394;-70
2022/03/06 11:33:55;;;;;;;18.33;10.40;;;4.70;62.20;;;;;;5053701;28;20060;-71
2022/03/06 11:36:24;;;;;;;16.70;10.30;;;4.90;62.00;;;;;;5054216;28;20021;-71
2022/03/06 11:38:51;;;;;;;17.40;10.68;;;5.30;60.80;;;;;;5052710;28;20043;-69
2022/03/06 11:41:18;;;;;;;17.65;10.82;;;5.50;60.50;;;;;;5057979;28;20158;-68
2022/03/06 11:43:47;;;;;;;17.13;10.32;;;5.70;59.80;;;;;;5067686;28;20474;-71
2022/03/06 11:46:25;;;;;;;17.30;10.65;;;5.80;59.50;;;;;;5053612;28;20032;-71
2022/03/06 11:48:51;;;;;;;16.83;10.55;;;5.90;59.50;;;;;;5052754;28;20032;-72
2022/03/06 11:51:22;;;;;;;18.52;11.07;;;6.00;58.50;;;;;;5063642;28;20025;-72
2022/03/06 11:54:06;;;;;;;15.73;10.38;;;6.20;57.70;;;;;;5052799;28;20079;-72
2022/03/06 11:59:05;;;;;;;17.38;10.68;;;6.60;56.80;;;;;;5053964;28;20123;-73
2022/03/06 12:01:36;;;;;;;17.05;10.77;;;6.80;55.60;;;;;;5073370;28;20031;-71
2022/03/06 12:04:08;;;;;;;17.40;10.25;;;6.90;55.00;;;;;;5072292;28;20477;-68
2022/03/06 12:06:41;;;;;;;17.23;10.10;;;7.10;54.50;;;;;;5065620;28;20032;-72
2022/03/06 12:09:12;;;;;;;15.52;9.50;;;7.30;53.80;;;;;;5053087;28;20130;-70
2022/03/06 12:11:39;;;;;;;16.40;10.52;;;8.00;86.60;;;;;;5053021;28;20024;-69
2022/03/06 12:14:16;;;;;;;15.95;10.20;;;;;;;;;;5052922;28;20108;-69
2022/03/06 12:17:01;;;;;;;14.25;9.80;;;9.00;48.60;;;;;;5051394;28;20155;-69
2022/03/06 12:19:42;;;;;;;14.10;10.45;;;9.00;49.30;;;;;;5053354;28;20082;-71
2022/03/06 12:22:21;;;;;;;18.30;9.88;;;9.10;49.10;;;;;;5053295;28;20097;-70
2022/03/06 12:25:11;;;;;;;16.83;10.43;;;8.80;49.00;;;;;;5052174;28;20127;-69
2022/03/06 12:28:02;;;;;;;15.20;9.43;;;8.40;49.30;;;;;;5057416;28;20032;-70
2022/03/06 12:30:34;;;;;;;17.15;10.00;;;7.60;51.60;;;;;;5058186;28;20131;-70
2022/03/06 12:33:27;;;;;;;12.73;9.32;;;7.30;52.20;;;;;;5051955;28;20668;-70
2022/03/06 12:36:20;;;;;;;17.80;9.60;;;7.50;51.50;;;;;;5044047;28;20068;-70
2022/03/06 12:38:50;;;;;;;17.10;10.05;;;7.50;51.60;;;;;;5050486;28;20029;-71